Time;durP1;ratioP1;P1;durP2;ratioP2;P2;SDS_P1;SDS_P2;PMS_P1;PMS_P2;Temp;Humidity;BMP_temperature;BMP_pressure;BME280_temperature;BME280_humidity;BME280_pressure;Samples;Min_cycle;Max_cycle;Signal;HPM_P1;HPM_P2
2021/08/19 00:01:22;;;;;;;7.83;3.77;;;;;;;18.54;66.16;99142.17;1751059;82;20990;-41
2021/08/19 00:03:48;;;;;;;5.92;3.50;;;;;;;18.62;66.09;99129.88;1751182;82;21560;-41
2021/08/19 00:06:15;;;;;;;7.92;3.60;;;;;;;18.71;66.18;99114.22;1751209;81;21838;-41
2021/08/19 00:08:43;;;;;;;8.53;3.75;;;;;;;18.73;66.28;99103.00;1751231;81;21023;-41
2021/08/19 00:11:11;;;;;;;4.62;3.50;;;;;;;18.71;65.58;99086.75;1781983;80;20999;-41
2021/08/19 00:13:40;;;;;;;6.45;3.60;;;;;;;18.69;65.10;99080.92;1782128;80;20961;-42
2021/08/19 00:16:07;;;;;;;5.12;3.02;;;;;;;18.64;65.41;99080.19;1782144;80;21072;-42
2021/08/19 00:18:35;;;;;;;4.03;3.22;;;;;;;18.65;65.76;99081.75;1782200;80;21491;-41
2021/08/19 00:21:05;;;;;;;4.97;3.17;;;;;;;18.68;65.47;99082.11;1782439;80;21511;-41
2021/08/19 00:23:35;;;;;;;5.87;3.15;;;;;;;18.71;64.81;99082.64;1782124;80;20933;-41
2021/08/19 00:26:04;;;;;;;5.95;3.12;;;;;;;18.70;64.75;99082.45;1782261;80;21016;-41
2021/08/19 00:28:30;;;;;;;4.92;2.90;;;;;;;18.68;64.74;99080.74;1782327;80;21641;-41
2021/08/19 00:31:00;;;;;;;5.35;3.17;;;;;;;18.66;64.74;99087.42;1754705;80;21515;-41
2021/08/19 00:33:27;;;;;;;3.30;2.75;;;;;;;18.63;65.07;99083.38;1751283;82;20957;-41
2021/08/19 00:35:56;;;;;;;5.28;3.12;;;;;;;18.66;65.51;99083.30;1749864;82;21155;-42
2021/08/19 00:38:23;;;;;;;4.08;2.90;;;;;;;18.69;65.24;99091.91;1743363;82;21053;-41
2021/08/19 00:40:49;;;;;;;3.72;2.90;;;;;;;18.71;64.88;99100.48;1743174;82;21088;-41
2021/08/19 00:43:17;;;;;;;4.72;3.05;;;;;;;18.71;64.58;99111.47;1751100;80;21524;-41
2021/08/19 00:45:46;;;;;;;4.40;3.45;;;;;;;18.74;64.48;99121.60;1773876;80;20985;-41
2021/08/19 00:48:12;;;;;;;5.33;3.20;;;;;;;18.76;64.30;99124.72;1774027;80;21028;-41
2021/08/19 00:50:40;;;;;;;5.40;3.58;;;;;;;18.72;64.21;99123.41;1773806;80;21010;-42
2021/08/19 00:53:06;;;;;;;4.97;3.40;;;;;;;18.62;64.41;99136.73;1773896;80;21601;-41
2021/08/19 00:55:33;;;;;;;4.10;3.02;;;;;;;18.52;64.39;99148.64;1773709;80;21113;-41
2021/08/19 00:58:01;;;;;;;4.90;3.77;;;;;;;18.43;64.36;99153.89;1773737;80;21018;-41
2021/08/19 01:00:28;;;;;;;6.50;3.80;;;;;;;18.31;64.70;99162.09;1774004;80;21456;-41
2021/08/19 01:02:58;;;;;;;9.55;3.95;;;;;;;18.23;65.08;99164.19;1773878;80;20914;-41
2021/08/19 01:05:29;;;;;;;5.25;3.65;;;;;;;18.13;65.38;99156.11;1774106;80;20977;-41
2021/08/19 01:07:59;;;;;;;7.72;3.80;;;;;;;18.10;66.15;99153.62;1774157;80;21096;-41
2021/08/19 01:10:28;;;;;;;5.95;3.47;;;;;;;18.19;66.40;99145.64;1752704;80;21020;-41
2021/08/19 01:12:55;;;;;;;6.87;3.70;;;;;;;18.30;66.20;99144.08;1743187;81;21677;-41
2021/08/19 01:15:22;;;;;;;7.70;3.92;;;;;;;18.37;66.25;99130.25;1743339;81;21017;-41
2021/08/19 01:18:00;;;;;;;7.00;3.80;;;;;;;18.45;66.37;99137.77;1743043;81;21014;-41
2021/08/19 01:20:34;;;;;;;6.72;4.10;;;;;;;18.49;66.27;99131.64;1743222;81;20974;-41
2021/08/19 01:23:00;;;;;;;6.12;4.50;;;;;;;18.53;66.34;99118.06;1743484;81;21023;-41
2021/08/19 01:25:27;;;;;;;8.55;3.98;;;;;;;18.56;66.32;99122.70;1743289;81;20961;-41
2021/08/19 01:27:55;;;;;;;5.28;3.85;;;;;;;18.57;66.37;99117.39;1743097;81;20933;-42
2021/08/19 01:30:23;;;;;;;7.08;4.42;;;;;;;18.61;66.58;99109.09;1762554;80;21511;-41
2021/08/19 01:32:50;;;;;;;5.53;4.30;;;;;;;18.62;66.58;99110.65;1773967;80;21297;-41
2021/08/19 01:35:24;;;;;;;5.10;4.20;;;;;;;18.63;66.50;99113.58;1773635;80;20934;-42
2021/08/19 01:37:50;;;;;;;6.37;4.25;;;;;;;18.63;66.31;99106.71;1756965;80;21602;-41
2021/08/19 01:40:19;;;;;;;6.58;3.50;;;;;;;18.62;66.19;99118.30;1743180;81;20953;-42
2021/08/19 01:42:47;;;;;;;5.20;3.67;;;;;;;18.64;66.07;99123.34;1743147;81;21503;-41
2021/08/19 01:45:18;;;;;;;5.05;3.67;;;;;;;18.71;65.78;99130.69;1743171;82;21516;-42
2021/08/19 01:47:47;;;;;;;4.72;3.70;;;;;;;18.76;65.61;99126.09;1707261;83;20988;-41
2021/08/19 01:51:49;;;;;;;7.67;4.05;;;;;;;18.80;65.19;99124.05;1835821;78;22720;-41
2021/08/19 01:54:16;;;;;;;4.05;3.25;;;;;;;18.67;65.02;99112.91;1806024;79;20970;-41
2021/08/19 01:56:43;;;;;;;4.75;3.90;;;;;;;18.66;65.23;99116.25;1793622;79;21124;-41
2021/08/19 01:59:12;;;;;;;5.15;3.65;;;;;;;18.66;65.37;99114.10;1784280;79;21072;-41
2021/08/19 02:01:39;;;;;;;5.85;3.33;;;;;;;18.65;65.34;99115.30;1784172;79;20945;-42
2021/08/19 02:04:07;;;;;;;8.20;3.35;;;;;;;18.66;65.40;99114.10;1784483;79;20917;-41
2021/08/19 02:06:33;;;;;;;6.12;3.50;;;;;;;18.73;65.34;99103.60;1784222;80;20925;-41
2021/08/19 02:09:00;;;;;;;4.37;3.20;;;;;;;18.72;65.24;99108.91;1784272;78;21148;-42
2021/08/19 02:11:27;;;;;;;4.95;3.35;;;;;;;18.69;65.13;99107.02;1784196;80;21566;-41
2021/08/19 02:13:54;;;;;;;5.08;3.42;;;;;;;18.68;64.85;99113.69;1784098;79;20964;-41
2021/08/19 02:16:23;;;;;;;5.85;3.55;;;;;;;18.66;64.58;99120.97;1784232;79;20914;-41
2021/08/19 02:18:50;;;;;;;6.58;3.85;;;;;;;18.58;64.69;99117.58;1784313;79;21037;-41
2021/08/19 02:21:17;;;;;;;4.00;3.52;;;;;;;18.46;64.64;99114.02;1784332;79;21920;-41
2021/08/19 02:23:45;;;;;;;6.87;3.50;;;;;;;18.32;65.11;99112.89;1784069;79;20973;-41
2021/08/19 02:26:12;;;;;;;6.40;3.52;;;;;;;18.28;65.75;99124.52;1784180;79;20965;-41
2021/08/19 02:28:39;;;;;;;6.17;4.15;;;;;;;18.30;66.02;99122.13;1784143;79;21025;-41
2021/08/19 02:31:06;;;;;;;6.47;4.28;;;;;;;18.24;65.86;99133.41;1784102;80;21033;-41
2021/08/19 02:33:34;;;;;;;7.28;4.28;;;;;;;18.16;66.10;99123.13;1784270;80;21924;-41
2021/08/19 02:36:00;;;;;;;6.55;4.00;;;;;;;18.17;66.65;99115.67;1784228;79;21044;-41
2021/08/19 02:38:28;;;;;;;6.60;3.77;;;;;;;18.20;66.68;99116.23;1783991;80;20988;-41
2021/08/19 02:40:55;;;;;;;5.30;3.95;;;;;;;18.25;66.44;99114.36;1784025;79;21068;-41
2021/08/19 02:43:21;;;;;;;6.30;4.25;;;;;;;18.26;66.29;99118.66;1784306;79;21074;-41
2021/08/19 02:45:48;;;;;;;8.80;4.35;;;;;;;18.27;66.33;99117.48;1784523;80;21093;-41
2021/08/19 02:48:14;;;;;;;5.62;4.40;;;;;;;18.28;66.41;99119.03;1784134;80;21037;-41
2021/08/19 02:50:42;;;;;;;7.40;4.70;;;;;;;18.26;66.34;99126.89;1786519;80;22020;-41
2021/08/19 02:53:09;;;;;;;8.35;4.30;;;;;;;18.25;66.38;99122.59;1790184;80;20913;-41
2021/08/19 02:55:35;;;;;;;6.03;3.87;;;;;;;18.25;66.43;99119.25;1790420;79;21075;-40
2021/08/19 02:58:02;;;;;;;5.62;4.33;;;;;;;18.32;66.47;99121.12;1790240;80;21463;-41
2021/08/19 03:00:29;;;;;;;6.70;4.62;;;;;;;18.38;66.33;99120.05;1790223;80;20969;-41
2021/08/19 03:02:55;;;;;;;5.97;4.55;;;;;;;18.33;66.24;99115.81;1789390;79;21060;-41
2021/08/19 03:05:22;;;;;;;8.55;5.30;;;;;;;18.31;66.31;99116.04;1789456;80;21048;-41
2021/08/19 03:07:49;;;;;;;7.78;5.58;;;;;;;18.22;66.33;99119.32;1789533;80;21033;-41
2021/08/19 03:10:16;;;;;;;5.70;4.40;;;;;;;18.16;66.49;99123.72;1789445;79;21109;-41
2021/08/19 03:12:44;;;;;;;8.58;4.55;;;;;;;18.10;66.60;99127.55;1789285;79;21009;-41
2021/08/19 03:15:11;;;;;;;7.75;4.65;;;;;;;18.09;66.65;99130.11;1789393;80;20952;-41
2021/08/19 03:17:38;;;;;;;6.92;4.55;;;;;;;18.15;66.57;99135.91;1789358;79;21538;-41
2021/08/19 03:20:10;;;;;;;7.67;4.85;;;;;;;18.16;66.55;99146.45;1789578;79;20995;-41
2021/08/19 03:22:36;;;;;;;;;;;;;;;18.13;66.41;99145.91;1792163;80;21045;-41
2021/08/19 03:25:07;;;;;;;8.38;4.95;;;;;;;18.10;66.61;99145.39;1789402;80;20113;-41
2021/08/19 03:27:33;;;;;;;;;;;;;;;17.97;66.83;99157.31;1791986;79;21506;-41
2021/08/19 03:29:59;;;;;;;7.08;3.60;;;;;;;17.96;66.72;99162.02;1789672;80;20144;-40
2021/08/19 03:32:27;;;;;;;6.75;4.50;;;;;;;17.91;66.89;99174.08;1789485;79;21059;-41
2021/08/19 03:34:54;;;;;;;9.40;4.78;;;;;;;17.93;66.91;99181.28;1789478;79;21957;-41
2021/08/19 03:37:21;;;;;;;9.78;4.62;;;;;;;17.94;66.99;99182.84;1789647;79;20948;-41
2021/08/19 03:39:48;;;;;;;7.95;5.10;;;;;;;18.00;67.03;99176.49;1789354;78;20953;-41
2021/08/19 03:42:16;;;;;;;7.45;4.85;;;;;;;18.06;66.83;99174.03;1789327;80;21559;-41
2021/08/19 03:44:43;;;;;;;9.63;4.67;;;;;;;18.14;66.98;99181.77;1789499;80;21491;-41
2021/08/19 03:47:11;;;;;;;7.60;4.25;;;;;;;18.21;66.77;99179.50;1789450;80;21103;-41
2021/08/19 03:49:39;;;;;;;10.13;4.40;;;;;;;18.33;66.61;99176.20;1789356;79;21000;-41
2021/08/19 03:52:06;;;;;;;8.30;4.50;;;;;;;18.39;66.24;99175.13;1775067;79;21476;-41
2021/08/19 03:54:34;;;;;;;6.20;4.05;;;;;;;18.42;66.38;99180.56;1772636;81;20986;-41
2021/08/19 03:57:00;;;;;;;7.12;4.25;;;;;;;18.45;65.97;99179.72;1772849;79;21097;-41
2021/08/19 03:59:28;;;;;;;8.45;4.58;;;;;;;18.38;65.88;99178.47;1773131;79;21464;-41
2021/08/19 04:01:54;;;;;;;9.70;4.58;;;;;;;18.32;65.95;99184.23;1772582;81;21021;-41
2021/08/19 04:04:21;;;;;;;8.95;4.67;;;;;;;18.30;66.12;99189.36;1773199;79;21013;-41
2021/08/19 04:06:47;;;;;;;6.92;4.75;;;;;;;18.32;66.01;99191.70;1772767;81;21029;-41
2021/08/19 04:09:14;;;;;;;12.23;4.83;;;;;;;18.37;66.36;99194.75;1771532;81;21014;-41
2021/08/19 04:11:42;;;;;;;5.45;4.78;;;;;;;18.42;66.78;99190.17;1764050;80;21005;-41
2021/08/19 04:14:10;;;;;;;8.68;4.92;;;;;;;18.49;66.50;99188.67;1764090;80;21570;-41
2021/08/19 04:16:37;;;;;;;10.60;5.17;;;;;;;18.55;66.23;99191.75;1764003;80;21051;-41
2021/08/19 04:19:04;;;;;;;8.65;4.90;;;;;;;18.58;66.25;99193.09;1764539;81;20977;-41
2021/08/19 04:21:32;;;;;;;7.42;4.90;;;;;;;18.57;66.07;99195.64;1764157;81;20934;-41
2021/08/19 04:24:00;;;;;;;9.03;4.90;;;;;;;18.59;65.86;99195.21;1764115;80;20973;-41
2021/08/19 04:26:27;;;;;;;8.83;5.12;;;;;;;18.62;65.79;99196.55;1764157;81;20882;-41
2021/08/19 04:28:54;;;;;;;8.48;5.40;;;;;;;18.64;65.55;99196.11;1763463;81;21623;-41
2021/08/19 04:31:20;;;;;;;8.68;5.17;;;;;;;18.68;65.62;99200.97;1742056;82;20989;-41
2021/08/19 04:33:47;;;;;;;7.45;4.95;;;;;;;18.69;65.51;99203.13;1742422;81;21017;-41
2021/08/19 04:36:14;;;;;;;7.62;4.47;;;;;;;18.64;65.69;99201.60;1742184;81;21132;-41
2021/08/19 04:38:41;;;;;;;9.60;5.03;;;;;;;18.62;65.76;99205.38;1765932;79;20910;-41
2021/08/19 04:41:08;;;;;;;8.58;4.97;;;;;;;18.57;65.91;99198.39;1772864;79;20985;-41
2021/08/19 04:43:36;;;;;;;9.73;4.97;;;;;;;18.55;66.09;99197.23;1772902;79;21563;-41
2021/08/19 04:46:02;;;;;;;9.28;5.53;;;;;;;18.55;66.18;99198.02;1772944;81;21539;-41
2021/08/19 04:48:29;;;;;;;8.88;5.85;;;;;;;18.54;65.57;99193.72;1770488;79;21913;-41
2021/08/19 04:50:56;;;;;;;13.70;5.20;;;;;;;18.48;65.79;99193.22;1766445;80;21802;-41
2021/08/19 04:53:24;;;;;;;12.80;4.87;;;;;;;18.44;66.12;99196.03;1742189;80;20981;-41
2021/08/19 04:55:51;;;;;;;6.92;5.10;;;;;;;18.45;66.25;99196.19;1742066;82;21052;-41
2021/08/19 04:58:17;;;;;;;8.25;6.12;;;;;;;18.48;66.04;99196.75;1742454;82;21099;-41
2021/08/19 05:00:44;;;;;;;9.50;5.85;;;;;;;18.42;65.75;99197.03;1742184;81;21568;-41
2021/08/19 05:03:11;;;;;;;7.20;5.80;;;;;;;18.34;66.06;99198.34;1742250;81;21069;-41
2021/08/19 05:05:38;;;;;;;9.13;6.03;;;;;;;18.34;66.37;99192.84;1742021;82;20961;-41
2021/08/19 05:08:05;;;;;;;11.08;5.72;;;;;;;18.36;66.50;99195.94;1742227;81;20965;-41
2021/08/19 05:10:32;;;;;;;9.55;5.53;;;;;;;18.40;66.79;99198.03;1764218;79;21068;-41
2021/08/19 05:12:58;;;;;;;13.25;6.30;;;;;;;18.49;66.94;99201.02;1772800;81;21858;-41
2021/08/19 05:15:25;;;;;;;9.23;6.20;;;;;;;18.53;66.98;99197.67;1772847;79;20994;-41
2021/08/19 05:17:52;;;;;;;12.45;6.28;;;;;;;18.58;66.40;99202.70;1772803;81;21574;-41
2021/08/19 05:20:20;;;;;;;7.80;5.75;;;;;;;18.58;66.42;99201.91;1772813;79;20949;-41
2021/08/19 05:22:47;;;;;;;10.38;5.37;;;;;;;18.62;66.16;99200.66;1772720;80;21562;-41
2021/08/19 05:25:15;;;;;;;9.83;5.95;;;;;;;18.65;66.12;99199.04;1772717;81;21085;-41
2021/08/19 05:27:42;;;;;;;9.53;6.08;;;;;;;18.72;65.92;99198.94;1772595;81;21008;-41
2021/08/19 05:30:09;;;;;;;7.55;6.15;;;;;;;18.80;65.40;99191.34;1772834;79;21085;-41
2021/08/19 05:32:37;;;;;;;11.70;6.03;;;;;;;18.81;65.82;99185.44;1772620;81;21033;-41
2021/08/19 05:35:05;;;;;;;11.78;5.83;;;;;;;18.85;65.40;99180.66;1772806;81;21089;-41
2021/08/19 05:37:31;;;;;;;8.80;6.12;;;;;;;18.83;65.28;99185.03;1772708;79;21621;-41
2021/08/19 05:39:58;;;;;;;8.15;5.30;;;;;;;18.84;65.32;99179.09;1772717;81;20957;-41
2021/08/19 05:42:26;;;;;;;9.28;5.33;;;;;;;18.87;65.21;99181.02;1772759;79;21008;-41
2021/08/19 05:44:52;;;;;;;8.33;5.95;;;;;;;18.93;64.89;99177.95;1772817;79;21586;-41
2021/08/19 05:47:19;;;;;;;10.28;6.10;;;;;;;18.95;64.63;99178.91;1772907;81;21069;-41
2021/08/19 05:49:46;;;;;;;10.93;6.03;;;;;;;18.93;64.53;99184.04;1772911;81;21101;-41
2021/08/19 05:52:15;;;;;;;9.30;5.42;;;;;;;18.90;64.66;99182.14;1783804;80;20984;-41
2021/08/19 05:54:42;;;;;;;9.50;6.20;;;;;;;18.89;64.50;99190.98;1789283;80;21755;-41
2021/08/19 05:57:09;;;;;;;8.30;5.60;;;;;;;18.87;64.93;99196.73;1789212;80;21052;-41
2021/08/19 05:59:36;;;;;;;6.58;4.92;;;;;;;18.89;65.06;99189.61;1789266;79;21033;-41
2021/08/19 06:02:03;;;;;;;9.40;5.22;;;;;;;18.96;64.92;99178.50;1789363;80;21129;-41
2021/08/19 06:04:30;;;;;;;10.18;5.80;;;;;;;19.03;64.55;99185.23;1789511;80;20925;-41
2021/08/19 06:06:57;;;;;;;8.75;5.67;;;;;;;19.06;64.50;99179.51;1789279;80;20969;-41
2021/08/19 06:09:25;;;;;;;9.75;6.03;;;;;;;19.13;64.61;99173.09;1789334;80;21511;-41
2021/08/19 06:11:53;;;;;;;7.35;5.42;;;;;;;19.21;64.42;99179.42;1789183;79;21032;-41
2021/08/19 06:14:20;;;;;;;7.40;5.40;;;;;;;19.29;64.34;99184.95;1789761;80;21029;-41
2021/08/19 06:16:46;;;;;;;6.47;4.30;;;;;;;19.40;64.44;99184.75;1789157;80;20976;-41
2021/08/19 06:19:14;;;;;;;9.58;5.08;;;;;;;19.54;63.31;99191.38;1789257;80;20921;-41
2021/08/19 06:21:40;;;;;;;7.83;5.12;;;;;;;19.67;62.90;99185.40;1789327;80;20901;-41
2021/08/19 06:24:08;;;;;;;8.03;4.95;;;;;;;19.73;62.60;99182.93;1789420;79;21633;-41
2021/08/19 06:26:35;;;;;;;7.45;4.17;;;;;;;19.81;62.66;99185.70;1789210;80;21858;-41
2021/08/19 06:29:02;;;;;;;8.78;4.42;;;;;;;19.90;61.57;99183.14;1789253;79;21006;-41
2021/08/19 06:31:29;;;;;;;6.33;4.22;;;;;;;19.99;60.37;99188.08;1789109;79;20992;-41
2021/08/19 06:33:56;;;;;;;8.25;4.22;;;;;;;20.09;60.39;99191.95;1789380;80;21507;-41
2021/08/19 06:36:23;;;;;;;7.80;4.62;;;;;;;20.18;59.61;99183.13;1789464;79;21020;-41
2021/08/19 06:38:53;;;;;;;6.85;4.80;;;;;;;20.28;59.87;99192.49;1789263;80;21077;-41
2021/08/19 06:41:21;;;;;;;7.22;4.03;;;;;;;20.35;59.09;99191.59;1789368;79;20941;-41
2021/08/19 06:43:48;;;;;;;5.42;3.90;;;;;;;20.44;57.91;99185.48;1789766;79;20984;-41
2021/08/19 06:46:14;;;;;;;8.70;4.78;;;;;;;20.53;57.10;99178.17;1789494;80;20969;-41
2021/08/19 06:48:41;;;;;;;6.20;4.08;;;;;;;20.60;57.06;99180.77;1789395;78;21004;-41
2021/08/19 06:51:07;;;;;;;8.55;4.15;;;;;;;20.65;56.47;99185.75;1789412;80;21081;-41
2021/08/19 06:53:35;;;;;;;7.00;4.60;;;;;;;20.73;56.29;99193.23;1789283;80;20993;-41
2021/08/19 06:56:06;;;;;;;8.85;4.92;;;;;;;20.78;56.49;99202.36;1789379;80;20937;-41
2021/08/19 06:58:32;;;;;;;9.35;4.47;;;;;;;20.80;54.72;99199.35;1789302;79;20982;-41
2021/08/19 07:00:59;;;;;;;7.80;4.47;;;;;;;20.79;54.53;99190.91;1789437;80;21068;-41
2021/08/19 07:03:26;;;;;;;8.68;4.85;;;;;;;20.79;54.51;99182.64;1789780;80;21085;-41
2021/08/19 07:05:53;;;;;;;7.97;4.60;;;;;;;20.82;54.12;99179.02;1789355;80;20956;-41
2021/08/19 07:08:19;;;;;;;7.10;5.30;;;;;;;20.85;54.49;99184.87;1789767;80;21012;-41
2021/08/19 07:10:46;;;;;;;7.67;5.22;;;;;;;20.89;54.77;99180.82;1789183;79;21015;-41
2021/08/19 07:13:13;;;;;;;8.95;5.33;;;;;;;20.96;55.36;99181.25;1789749;80;21033;-41
2021/08/19 07:15:41;;;;;;;6.53;4.42;;;;;;;20.99;55.64;99174.27;1789317;80;21523;-41
2021/08/19 07:18:09;;;;;;;10.75;5.35;;;;;;;21.02;54.91;99174.77;1789246;79;20957;-41
2021/08/19 07:20:36;;;;;;;7.67;5.20;;;;;;;21.04;55.23;99169.60;1789421;78;21037;-41
2021/08/19 07:23:03;;;;;;;6.80;4.78;;;;;;;21.09;55.44;99177.34;1789669;80;21016;-41
2021/08/19 07:25:30;;;;;;;9.85;6.08;;;;;;;21.15;55.40;99183.91;1789499;80;21472;-41
2021/08/19 07:27:56;;;;;;;9.03;5.20;;;;;;;21.19;55.51;99192.08;1789308;79;21132;-41
2021/08/19 07:30:23;;;;;;;8.08;5.70;;;;;;;21.22;54.50;99189.22;1789374;79;20945;-41
2021/08/19 07:32:50;;;;;;;8.90;5.60;;;;;;;21.33;54.51;99192.30;1789336;79;20925;-41
2021/08/19 07:35:16;;;;;;;11.25;5.90;;;;;;;21.42;54.01;99191.05;1789352;79;21025;-41
2021/08/19 07:37:48;;;;;;;6.75;5.10;;;;;;;21.51;53.94;99187.05;1789464;78;21079;-41
2021/08/19 07:40:20;;;;;;;9.03;6.10;;;;;;;21.60;53.58;99196.23;1789415;80;21104;-41
2021/08/19 07:42:50;;;;;;;7.42;5.53;;;;;;;21.62;52.83;99188.91;1789292;79;22136;-41
2021/08/19 07:45:17;;;;;;;8.80;6.05;;;;;;;21.63;52.67;99200.13;1789405;80;20981;-41
2021/08/19 07:47:43;;;;;;;9.43;5.78;;;;;;;21.61;52.63;99198.39;1789573;79;21513;-41
2021/08/19 07:50:11;;;;;;;8.53;6.10;;;;;;;21.63;52.72;99197.36;1789473;80;21515;-41
2021/08/19 07:52:39;;;;;;;8.35;5.78;;;;;;;21.65;51.53;99202.59;1780394;80;21814;-41
2021/08/19 07:55:07;;;;;;;8.75;5.80;;;;;;;21.64;51.67;99203.02;1772760;81;21026;-41
2021/08/19 07:57:50;;;;;;;6.42;4.97;;;;;;;21.67;52.54;99200.79;1773031;79;21061;-41
2021/08/19 08:00:27;;;;;;;9.00;5.58;;;;;;;21.69;51.92;99194.98;1772949;81;21700;-41
2021/08/19 08:02:54;;;;;;;7.10;5.80;;;;;;;21.73;52.36;99190.77;1771363;80;21472;-41
2021/08/19 08:05:22;;;;;;;7.47;5.55;;;;;;;21.77;52.27;99190.05;1772996;80;21076;-41
2021/08/19 08:07:49;;;;;;;8.85;5.70;;;;;;;21.79;52.13;99197.88;1759314;79;20948;-41
2021/08/19 08:10:17;;;;;;;7.55;5.20;;;;;;;21.81;51.37;99189.34;1766514;81;21027;-41
2021/08/19 08:12:44;;;;;;;7.53;5.62;;;;;;;21.83;51.65;99184.16;1766510;81;21025;-41
2021/08/19 08:15:10;;;;;;;8.58;5.85;;;;;;;21.88;50.88;99184.22;1766648;81;21076;-41
2021/08/19 08:17:38;;;;;;;8.35;5.62;;;;;;;21.86;50.54;99184.66;1766514;81;21590;-41
2021/08/19 08:20:08;;;;;;;8.43;5.60;;;;;;;21.86;51.01;99188.80;1766325;81;20949;-42
2021/08/19 08:22:36;;;;;;;7.55;6.25;;;;;;;21.91;50.22;99193.77;1766527;81;20957;-42
2021/08/19 08:25:06;;;;;;;7.83;5.72;;;;;;;21.91;49.41;99192.39;1766543;81;21574;-42
2021/08/19 08:27:33;;;;;;;7.92;5.92;;;;;;;21.89;50.33;99189.28;1766510;81;21827;-41
2021/08/19 08:29:59;;;;;;;8.88;5.85;;;;;;;21.94;50.05;99192.13;1766530;81;21770;-42
2021/08/19 08:32:28;;;;;;;7.00;5.25;;;;;;;22.00;49.61;99189.00;1766231;81;20949;-42
2021/08/19 08:34:54;;;;;;;7.37;5.75;;;;;;;22.07;49.60;99184.66;1766381;81;20980;-42
2021/08/19 08:37:23;;;;;;;7.42;5.53;;;;;;;22.07;49.32;99181.27;1766511;81;21037;-41
2021/08/19 08:39:49;;;;;;;8.63;5.78;;;;;;;22.13;49.83;99183.47;1766587;81;21044;-42
2021/08/19 08:42:17;;;;;;;8.73;5.80;;;;;;;22.22;49.73;99189.13;1766420;81;21853;-42
2021/08/19 08:44:45;;;;;;;7.78;5.83;;;;;;;22.33;49.91;99180.66;1766371;81;20980;-42
2021/08/19 08:47:13;;;;;;;9.15;5.60;;;;;;;22.43;50.08;99180.94;1766249;81;21041;-42
2021/08/19 08:49:41;;;;;;;12.03;5.53;;;;;;;22.50;49.22;99181.33;1766321;81;21567;-42
2021/08/19 08:52:08;;;;;;;6.90;5.47;;;;;;;22.53;48.79;99181.80;1770095;80;21039;-42
2021/08/19 08:54:35;;;;;;;12.53;5.87;;;;;;;22.53;49.08;99176.28;1785632;80;21909;-42
2021/08/19 08:57:04;;;;;;;7.78;5.83;;;;;;;22.60;49.36;99180.20;1785642;80;21067;-42
2021/08/19 08:59:31;;;;;;;7.05;5.92;;;;;;;22.64;47.60;99179.48;1785776;79;20901;-42
2021/08/19 09:01:58;;;;;;;9.18;6.70;;;;;;;22.61;48.22;99170.67;1785714;79;21041;-42
2021/08/19 09:04:25;;;;;;;8.20;5.70;;;;;;;22.66;48.36;99183.16;1784019;80;21048;-42
2021/08/19 09:06:52;;;;;;;8.55;6.28;;;;;;;22.70;48.68;99170.02;1784163;80;21120;-42
2021/08/19 09:09:26;;;;;;;8.40;5.83;;;;;;;22.75;48.55;99163.32;1784320;80;21675;-41
2021/08/19 09:12:04;;;;;;;7.45;5.70;;;;;;;22.86;49.23;99170.66;1785654;80;20972;-41
2021/08/19 09:14:41;;;;;;;6.65;5.45;;;;;;;23.01;48.14;99173.70;1785866;80;21023;-41
2021/08/19 09:17:05;;;;;;;6.60;5.67;;;;;;;23.11;47.46;99173.17;1785492;80;20989;-42
2021/08/19 09:19:35;;;;;;;9.18;6.08;;;;;;;23.08;46.36;99176.84;1785744;80;21833;-42
2021/08/19 09:22:05;;;;;;;9.75;5.45;;;;;;;22.98;47.04;99170.46;1785660;80;21254;-42
2021/08/19 09:24:33;;;;;;;7.37;5.60;;;;;;;22.91;46.29;99167.32;1785667;80;21024;-42
2021/08/19 09:27:12;;;;;;;6.90;4.95;;;;;;;22.80;45.85;99159.99;1785935;79;21067;-42
2021/08/19 09:29:39;;;;;;;7.78;5.50;;;;;;;22.67;46.22;99159.23;1782686;80;20992;-42
2021/08/19 09:32:18;;;;;;;8.33;5.15;;;;;;;22.58;46.55;99151.46;1785816;80;21126;-42
2021/08/19 09:34:47;;;;;;;;;;;;;;;22.53;46.60;99152.19;1788257;80;20963;-42
2021/08/19 09:37:18;;;;;;;7.90;5.40;;;;;;;22.57;47.39;99158.97;1785953;79;20177;-42
2021/08/19 09:39:59;;;;;;;8.13;5.28;;;;;;;22.55;47.28;99160.05;1785622;79;20968;-42
2021/08/19 09:42:36;;;;;;;8.60;5.42;;;;;;;22.70;46.98;99161.16;1785988;79;20995;-42
2021/08/19 09:45:22;;;;;;;7.75;5.97;;;;;;;22.83;46.86;99150.05;1785865;80;20924;-42
2021/08/19 09:47:51;;;;;;;6.70;5.65;;;;;;;22.96;47.33;99148.01;1785643;78;20960;-42
2021/08/19 09:50:22;;;;;;;10.10;5.62;;;;;;;23.15;45.53;99144.77;1774390;78;21068;-42
2021/08/19 09:52:51;;;;;;;8.55;5.65;;;;;;;23.19;45.32;99138.53;1770890;79;21027;-42
2021/08/19 09:55:26;;;;;;;6.60;5.25;;;;;;;23.22;46.32;99144.53;1784060;80;21035;-42
2021/08/19 09:57:56;;;;;;;8.23;5.87;;;;;;;23.31;46.17;99154.28;1784162;80;21577;-42
2021/08/19 10:00:38;;;;;;;7.67;5.92;;;;;;;23.37;45.72;99152.48;1784094;79;28261;-42
2021/08/19 10:03:02;;;;;;;8.00;5.90;;;;;;;23.40;45.16;99156.50;1783973;80;23518;-42
2021/08/19 10:05:28;;;;;;;8.35;5.70;;;;;;;23.43;45.95;99156.83;1784212;80;21518;-42
2021/08/19 10:07:57;;;;;;;7.67;5.25;;;;;;;23.47;45.45;99157.50;1783961;80;21066;-42
2021/08/19 10:10:24;;;;;;;8.50;5.85;;;;;;;23.53;45.79;99158.47;1729668;80;21160;-42
2021/08/19 10:12:53;;;;;;;8.03;5.55;;;;;;;23.57;45.15;99155.73;1786291;80;20940;-42
2021/08/19 10:15:20;;;;;;;9.18;5.85;;;;;;;23.57;44.82;99153.56;1785792;80;21038;-42
2021/08/19 10:17:49;;;;;;;6.95;5.35;;;;;;;23.47;44.50;99158.27;1785970;80;21087;-42
2021/08/19 10:20:19;;;;;;;7.42;5.83;;;;;;;23.31;45.12;99159.20;1786001;80;21110;-42
2021/08/19 10:22:47;;;;;;;8.58;6.08;;;;;;;23.22;45.11;99159.75;1786055;80;21145;-42
2021/08/19 10:25:17;;;;;;;6.08;5.47;;;;;;;23.15;45.23;99159.98;1785871;80;20893;-42
2021/08/19 10:27:44;;;;;;;6.10;5.10;;;;;;;23.14;46.36;99159.20;1756194;80;20975;-42
2021/08/19 10:30:22;;;;;;;7.03;5.65;;;;;;;23.17;45.66;99147.87;1768397;80;20988;-42
2021/08/19 10:32:55;;;;;;;8.05;5.67;;;;;;;23.16;45.65;99149.87;1754831;81;21602;-42
2021/08/19 10:35:27;;;;;;;7.10;5.87;;;;;;;23.12;45.22;99149.83;1754773;81;21154;-42
2021/08/19 10:38:00;;;;;;;6.30;5.08;;;;;;;23.10;45.42;99141.98;1754818;81;21040;-42
2021/08/19 10:40:32;;;;;;;8.68;5.45;;;;;;;23.10;45.60;99143.97;1754913;80;20980;-42
2021/08/19 10:43:20;;;;;;;6.47;5.50;;;;;;;23.13;46.08;99134.19;1773732;79;21015;-42
2021/08/19 10:45:47;;;;;;;9.73;6.35;;;;;;;23.17;45.16;99128.52;1781320;80;21019;-42
2021/08/19 10:48:21;;;;;;;7.17;5.70;;;;;;;23.21;45.06;99129.16;1784172;80;21558;-42
2021/08/19 10:50:49;;;;;;;10.32;5.80;;;;;;;23.22;45.59;99130.09;1754731;81;21523;-42
2021/08/19 10:53:23;;;;;;;9.60;5.97;;;;;;;23.26;46.77;99125.81;1747030;81;20992;-42
2021/08/19 10:55:54;;;;;;;6.45;5.60;;;;;;;23.34;46.01;99128.47;1736159;82;20984;-42
2021/08/19 10:58:22;;;;;;;;;;;;;;;23.38;43.74;99129.14;1740266;81;21056;-42
2021/08/19 11:00:49;;;;;;;8.85;5.60;;;;;;;23.33;44.29;99126.95;1751829;81;21153;-42
2021/08/19 11:03:39;;;;;;;7.90;6.03;;;;;;;23.19;44.17;99127.47;1736002;82;20909;-42
2021/08/19 11:06:16;;;;;;;8.25;5.62;;;;;;;23.22;44.39;99134.85;1736177;82;21606;-42
2021/08/19 11:08:57;;;;;;;7.62;5.22;;;;;;;23.16;43.95;99131.12;1736031;82;20969;-42
2021/08/19 11:11:35;;;;;;;6.37;5.20;;;;;;;23.08;43.85;99138.91;1734101;82;21025;-42
2021/08/19 11:14:20;;;;;;;6.78;5.05;;;;;;;23.02;43.91;99131.63;1736225;82;20937;-42
2021/08/19 11:17:00;;;;;;;6.40;5.10;;;;;;;22.98;44.43;99126.23;1736091;82;21546;-42
2021/08/19 11:19:30;;;;;;;6.53;5.65;;;;;;;23.00;44.62;99138.20;1736382;82;20984;-42
2021/08/19 11:22:04;;;;;;;7.08;5.42;;;;;;;22.99;44.64;99136.67;1736418;82;21040;-42
2021/08/19 11:24:34;;;;;;;7.85;4.85;;;;;;;22.98;44.10;99137.28;1736141;82;20965;-42
2021/08/19 11:27:07;;;;;;;6.00;4.92;;;;;;;22.95;44.16;99139.55;1736206;82;21809;-42
2021/08/19 11:29:39;;;;;;;7.20;5.25;;;;;;;22.92;43.75;99139.84;1747252;81;21796;-42
2021/08/19 11:32:13;;;;;;;6.20;4.70;;;;;;;22.90;44.54;99139.51;1746055;79;21194;-42
2021/08/19 11:34:49;;;;;;;8.53;5.45;;;;;;;22.88;44.25;99143.34;1766757;81;21583;-42
2021/08/19 11:37:28;;;;;;;7.00;5.12;;;;;;;22.93;44.25;99139.23;1766611;81;20898;-42
2021/08/19 11:39:56;;;;;;;6.58;5.05;;;;;;;22.98;43.84;99132.36;1766711;81;21930;-42
2021/08/19 11:42:33;;;;;;;7.97;4.90;;;;;;;23.02;44.21;99120.56;1766473;81;20945;-42